createdAt,value
2018-12-21T00:01:55.156Z,6.40
2018-12-21T00:04:23.681Z,6.40
2018-12-21T00:06:51.990Z,6.30
2018-12-21T00:09:20.452Z,6.20
2018-12-21T00:11:48.684Z,6.20
2018-12-21T00:14:16.991Z,6.30
2018-12-21T00:16:45.580Z,6.30
2018-12-21T00:19:13.941Z,6.30
2018-12-21T00:21:42.089Z,6.40
2018-12-21T00:24:10.564Z,6.30
2018-12-21T00:26:38.914Z,6.40
2018-12-21T00:29:07.425Z,6.40
2018-12-21T00:31:41.353Z,6.30
2018-12-21T00:34:15.493Z,6.30
2018-12-21T00:36:49.463Z,6.30
2018-12-21T00:39:23.740Z,6.30
2018-12-21T00:41:51.582Z,6.40
2018-12-21T00:44:31.830Z,6.40
2018-12-21T00:47:03.638Z,6.40
2018-12-21T00:49:31.935Z,6.30
2018-12-21T00:52:00.155Z,6.30
2018-12-21T00:54:28.494Z,6.30
2018-12-21T00:56:57.076Z,6.30
2018-12-21T00:59:25.393Z,6.40
2018-12-21T01:01:53.563Z,6.40
2018-12-21T01:04:21.980Z,6.40
2018-12-21T01:06:50.444Z,6.50
2018-12-21T01:09:18.777Z,6.50
2018-12-21T01:11:47.297Z,6.50
2018-12-21T01:14:15.734Z,6.60
2018-12-21T01:16:44.126Z,6.60
2018-12-21T01:19:12.759Z,6.60
2018-12-21T01:21:41.024Z,6.50
2018-12-21T01:24:09.605Z,6.60
2018-12-21T01:26:37.925Z,6.60
2018-12-21T01:29:06.419Z,6.60
2018-12-21T01:31:34.849Z,6.70
2018-12-21T01:34:03.412Z,6.70
2018-12-21T01:36:31.709Z,6.70
2018-12-21T01:39:00.461Z,6.70
2018-12-21T01:41:28.794Z,6.80
2018-12-21T01:43:57.174Z,6.80
2018-12-21T01:46:25.838Z,6.70
2018-12-21T01:48:54.392Z,6.70
2018-12-21T01:51:22.599Z,7.10
2018-12-21T01:53:50.722Z,6.80
2018-12-21T01:56:18.955Z,6.70
2018-12-21T01:58:47.428Z,6.70
2018-12-21T02:01:15.696Z,6.70
2018-12-21T02:03:44.197Z,6.70
2018-12-21T02:06:12.653Z,6.70
2018-12-21T02:08:41.684Z,6.70
2018-12-21T02:11:10.548Z,6.70
2018-12-21T02:13:39.101Z,6.60
2018-12-21T02:16:07.501Z,6.70
2018-12-21T02:18:35.949Z,6.70
2018-12-21T02:21:04.443Z,6.80
2018-12-21T02:23:33.050Z,6.80
2018-12-21T02:26:01.234Z,6.80
2018-12-21T02:28:29.515Z,6.80
2018-12-21T02:30:57.726Z,6.80
2018-12-21T02:33:25.907Z,6.80
2018-12-21T02:35:54.097Z,6.80
2018-12-21T02:38:22.838Z,6.80
2018-12-21T02:40:51.211Z,6.80
2018-12-21T02:43:19.516Z,6.80
2018-12-21T02:45:47.860Z,6.80
2018-12-21T02:48:16.261Z,6.80
2018-12-21T02:50:45.374Z,6.70
2018-12-21T02:53:13.513Z,6.90
2018-12-21T02:55:41.686Z,6.80
2018-12-21T02:58:10.074Z,6.80
2018-12-21T03:00:38.509Z,6.80
2018-12-21T03:03:07.147Z,6.80
2018-12-21T03:05:35.789Z,6.80
2018-12-21T03:08:04.577Z,6.80
2018-12-21T03:10:32.926Z,6.80
2018-12-21T03:13:01.767Z,6.70
2018-12-21T03:15:30.272Z,6.70
2018-12-21T03:17:58.631Z,6.60
2018-12-21T03:20:27.075Z,6.60
2018-12-21T03:22:55.580Z,6.60
2018-12-21T03:25:24.069Z,6.80
2018-12-21T03:27:53.239Z,6.70
2018-12-21T03:30:21.659Z,6.80
2018-12-21T03:32:50.216Z,6.80
2018-12-21T03:35:18.423Z,6.90
2018-12-21T03:37:46.722Z,6.90
2018-12-21T03:40:15.113Z,6.90
2018-12-21T03:42:43.280Z,6.90
2018-12-21T03:45:11.533Z,6.90
2018-12-21T03:47:40.096Z,6.90
2018-12-21T03:50:08.311Z,6.90
2018-12-21T03:52:36.528Z,6.90
2018-12-21T03:55:05.741Z,7.00
2018-12-21T03:57:33.997Z,7.10
2018-12-21T04:00:02.749Z,7.10
2018-12-21T04:02:31.099Z,7.00
2018-12-21T04:04:59.632Z,7.00
2018-12-21T04:07:28.122Z,6.90
2018-12-21T04:09:56.829Z,7.00
2018-12-21T04:12:25.105Z,6.90
2018-12-21T04:14:54.170Z,6.90
2018-12-21T04:17:22.748Z,6.90
2018-12-21T04:19:51.092Z,6.90
2018-12-21T04:22:19.564Z,6.80
2018-12-21T04:24:47.916Z,6.70
2018-12-21T04:27:16.127Z,6.70
2018-12-21T04:29:44.612Z,6.60
2018-12-21T04:32:12.981Z,6.60
2018-12-21T04:34:41.467Z,6.60
2018-12-21T04:37:09.634Z,6.60
2018-12-21T04:39:38.048Z,6.60
2018-12-21T04:42:06.233Z,6.60
2018-12-21T04:44:34.840Z,6.70
2018-12-21T04:47:03.262Z,6.90
2018-12-21T04:49:31.602Z,6.90
2018-12-21T04:51:59.856Z,6.90
2018-12-21T04:54:29.077Z,6.90
2018-12-21T04:56:57.293Z,7.00
2018-12-21T04:59:26.511Z,7.10
2018-12-21T05:01:54.746Z,7.10
2018-12-21T05:04:23.289Z,7.00
2018-12-21T05:06:51.801Z,7.00
2018-12-21T05:09:20.514Z,7.10
2018-12-21T05:11:49.207Z,7.10
2018-12-21T05:14:17.818Z,7.10
2018-12-21T05:16:46.242Z,7.10
2018-12-21T05:19:14.824Z,7.10
2018-12-21T05:21:43.410Z,7.20
2018-12-21T05:24:11.872Z,7.20
2018-12-21T05:26:40.355Z,7.20
2018-12-21T05:29:08.639Z,7.20
2018-12-21T05:31:36.845Z,7.30
2018-12-21T05:34:05.105Z,7.30
2018-12-21T05:36:33.849Z,7.40
2018-12-21T05:39:03.591Z,7.50
2018-12-21T05:41:32.960Z,7.50
2018-12-21T05:44:01.154Z,7.50
2018-12-21T05:46:29.526Z,7.50
2018-12-21T05:48:57.705Z,7.50
2018-12-21T05:51:25.872Z,7.60
2018-12-21T05:53:54.017Z,7.70
2018-12-21T05:56:22.214Z,7.70
2018-12-21T05:58:50.518Z,7.70
2018-12-21T06:01:19.150Z,7.70
2018-12-21T06:03:47.338Z,7.70
2018-12-21T06:06:16.023Z,7.70
2018-12-21T06:08:47.770Z,7.60
2018-12-21T06:11:16.629Z,7.70
2018-12-21T06:13:45.202Z,7.70
2018-12-21T06:16:13.886Z,7.80
2018-12-21T06:18:42.322Z,7.80
2018-12-21T06:21:10.746Z,7.90
2018-12-21T06:23:39.087Z,8.00
2018-12-21T06:26:07.998Z,8.10
2018-12-21T06:28:36.330Z,8.10
2018-12-21T06:31:04.621Z,8.10
2018-12-21T06:33:32.857Z,8.10
2018-12-21T06:36:01.324Z,8.00
2018-12-21T06:38:29.460Z,8.00
2018-12-21T06:40:58.053Z,7.80
2018-12-21T06:43:26.401Z,7.80
2018-12-21T06:45:57.405Z,7.70
2018-12-21T06:48:25.740Z,7.60
2018-12-21T06:50:54.106Z,7.60
2018-12-21T06:53:22.284Z,7.50
2018-12-21T06:55:50.463Z,7.40
2018-12-21T06:58:19.046Z,7.30
2018-12-21T07:00:47.504Z,7.20
2018-12-21T07:03:17.265Z,7.20
2018-12-21T07:05:46.381Z,7.20
2018-12-21T07:08:15.335Z,7.20
2018-12-21T07:10:44.090Z,7.20
2018-12-21T07:13:12.490Z,7.20
2018-12-21T07:15:41.170Z,7.20
2018-12-21T07:18:09.461Z,7.10
2018-12-21T07:20:37.739Z,7.10
2018-12-21T07:23:06.925Z,7.00
2018-12-21T07:25:35.316Z,7.00
2018-12-21T07:28:03.991Z,7.00
2018-12-21T07:30:32.147Z,6.90
2018-12-21T07:33:00.797Z,6.90
2018-12-21T07:35:29.155Z,7.00
2018-12-21T07:37:57.811Z,6.90
2018-12-21T07:40:26.069Z,6.90
2018-12-21T07:42:54.679Z,6.90
2018-12-21T07:45:22.896Z,7.00
2018-12-21T07:47:51.144Z,7.10
2018-12-21T07:50:19.871Z,7.00
2018-12-21T07:52:48.154Z,7.10
2018-12-21T07:55:16.445Z,7.00
2018-12-21T07:57:45.692Z,7.10
2018-12-21T08:00:14.288Z,7.10
2018-12-21T08:02:42.781Z,7.20
2018-12-21T08:05:11.050Z,7.20
2018-12-21T08:07:39.524Z,7.20
2018-12-21T08:10:17.977Z,7.10
2018-12-21T08:12:46.202Z,7.20
2018-12-21T08:15:14.862Z,7.20
2018-12-21T08:17:43.246Z,7.20
2018-12-21T08:20:12.259Z,7.30
2018-12-21T08:22:40.602Z,7.20
2018-12-21T08:25:09.035Z,7.20
2018-12-21T08:27:37.366Z,7.20
2018-12-21T08:30:08.396Z,7.20
2018-12-21T08:32:37.288Z,7.20
2018-12-21T08:35:05.619Z,7.20
2018-12-21T08:37:34.172Z,7.30
2018-12-21T08:40:02.348Z,7.30
2018-12-21T08:42:30.555Z,7.30
2018-12-21T08:44:59.316Z,7.20
2018-12-21T08:47:27.508Z,7.20
2018-12-21T08:49:55.816Z,7.20
2018-12-21T08:52:24.478Z,7.20
2018-12-21T08:54:52.855Z,7.20
2018-12-21T08:57:21.117Z,7.20
2018-12-21T08:59:49.556Z,7.20
2018-12-21T09:02:17.781Z,7.20
2018-12-21T09:04:46.231Z,7.30
2018-12-21T09:07:15.012Z,7.20
2018-12-21T09:09:43.534Z,7.30
2018-12-21T09:12:12.375Z,7.30
2018-12-21T09:14:40.803Z,7.30
2018-12-21T09:17:09.516Z,7.40
2018-12-21T09:19:37.749Z,7.40
2018-12-21T09:22:07.362Z,7.40
2018-12-21T09:24:35.514Z,7.40
2018-12-21T09:27:03.871Z,7.50
2018-12-21T09:29:32.576Z,7.50
2018-12-21T09:32:04.954Z,7.50
2018-12-21T09:34:31.090Z,7.50
2018-12-21T09:36:59.353Z,7.50
2018-12-21T09:39:27.596Z,7.60
2018-12-21T09:41:55.991Z,7.60
2018-12-21T09:44:24.552Z,7.70
2018-12-21T09:46:52.930Z,7.70
2018-12-21T09:49:21.216Z,7.80
2018-12-21T09:51:49.545Z,7.80
2018-12-21T09:54:17.773Z,7.80
2018-12-21T09:56:45.928Z,7.80
2018-12-21T09:59:14.306Z,7.90
2018-12-21T10:01:42.873Z,7.90
2018-12-21T10:04:11.092Z,8.00
2018-12-21T10:06:39.264Z,8.00
2018-12-21T10:09:08.156Z,8.10
2018-12-21T10:11:36.508Z,8.10
2018-12-21T10:14:04.983Z,8.10
2018-12-21T10:16:33.250Z,8.20
2018-12-21T10:19:01.602Z,7.80
2018-12-21T10:21:30.125Z,8.20
2018-12-21T10:23:58.518Z,8.20
2018-12-21T10:26:26.794Z,8.30
2018-12-21T10:28:55.709Z,8.30
2018-12-21T10:31:24.038Z,8.40
2018-12-21T10:33:52.400Z,8.40
2018-12-21T10:36:20.801Z,8.40
2018-12-21T10:38:49.456Z,8.40
2018-12-21T10:41:17.850Z,8.50
2018-12-21T10:43:46.374Z,8.50
2018-12-21T10:46:14.747Z,8.60
2018-12-21T10:48:42.880Z,8.60
2018-12-21T10:51:11.047Z,8.70
2018-12-21T10:53:39.600Z,8.70
2018-12-21T10:56:08.080Z,8.70
2018-12-21T10:58:36.400Z,8.70
2018-12-21T11:01:04.885Z,8.70
2018-12-21T11:03:33.327Z,8.70
2018-12-21T11:06:02.292Z,8.70
2018-12-21T11:08:30.649Z,8.70
2018-12-21T11:10:59.550Z,8.70
2018-12-21T11:13:28.902Z,8.70
2018-12-21T11:15:57.353Z,8.70
2018-12-21T11:18:25.846Z,8.70
2018-12-21T11:20:55.059Z,8.80
2018-12-21T11:23:23.354Z,8.90
2018-12-21T11:25:52.524Z,9.00
2018-12-21T11:28:25.359Z,9.10
2018-12-21T11:30:51.319Z,9.20
2018-12-21T11:33:19.514Z,9.20
2018-12-21T11:35:47.962Z,9.20
2018-12-21T11:38:16.660Z,9.30
2018-12-21T11:40:44.872Z,9.40
2018-12-21T11:43:13.203Z,9.40
2018-12-21T11:45:41.960Z,9.50
2018-12-21T11:48:10.356Z,9.60
2018-12-21T11:50:39.127Z,9.70
2018-12-21T11:53:07.612Z,9.70
2018-12-21T11:55:35.784Z,9.70
2018-12-21T11:58:04.508Z,9.70
2018-12-21T12:00:32.922Z,9.80
2018-12-21T12:03:01.792Z,9.80
2018-12-21T12:05:30.678Z,10.00
2018-12-21T12:07:58.987Z,10.00
2018-12-21T12:10:27.309Z,10.10
2018-12-21T12:12:55.785Z,10.10
2018-12-21T12:15:24.071Z,10.20
2018-12-21T12:17:52.229Z,10.20
2018-12-21T12:20:20.363Z,10.20
2018-12-21T12:22:48.502Z,10.30
2018-12-21T12:25:16.894Z,10.30
2018-12-21T12:27:45.305Z,10.30
2018-12-21T12:30:14.043Z,10.30
2018-12-21T12:32:42.358Z,10.40
2018-12-21T12:35:10.766Z,10.50
2018-12-21T12:37:39.280Z,10.50
2018-12-21T12:40:08.837Z,10.60
2018-12-21T12:42:37.960Z,10.70
2018-12-21T12:45:07.904Z,10.70
2018-12-21T12:47:36.064Z,10.70
2018-12-21T12:50:04.961Z,10.80
2018-12-21T12:52:33.109Z,10.80
2018-12-21T12:55:02.626Z,10.80
2018-12-21T12:57:31.934Z,10.90
2018-12-21T13:00:00.459Z,10.90
2018-12-21T13:02:29.405Z,10.90
2018-12-21T13:04:57.773Z,10.80
2018-12-21T13:07:27.373Z,10.80
2018-12-21T13:09:55.601Z,10.80
2018-12-21T13:12:23.862Z,10.80
2018-12-21T13:14:52.365Z,10.80
2018-12-21T13:17:20.550Z,10.80
2018-12-21T13:19:48.975Z,10.90
2018-12-21T13:22:17.171Z,10.90
2018-12-21T13:24:45.433Z,10.90
2018-12-21T13:27:14.139Z,10.90
2018-12-21T13:29:42.710Z,10.90
2018-12-21T13:32:11.131Z,10.80
2018-12-21T13:34:39.341Z,10.80
2018-12-21T13:37:07.799Z,10.90
2018-12-21T13:39:36.524Z,10.90
2018-12-21T13:42:04.757Z,10.80
2018-12-21T13:44:32.980Z,10.80
2018-12-21T13:47:01.252Z,10.80
2018-12-21T13:49:30.201Z,10.80
2018-12-21T13:51:58.592Z,10.80
2018-12-21T13:54:27.028Z,10.80
2018-12-21T13:56:55.173Z,10.80
2018-12-21T13:59:23.363Z,10.80
2018-12-21T14:01:51.528Z,10.80
2018-12-21T14:04:19.941Z,10.80
2018-12-21T14:06:48.472Z,10.80
2018-12-21T14:09:16.977Z,10.80
2018-12-21T14:11:46.537Z,10.80
2018-12-21T14:14:15.201Z,10.70
2018-12-21T14:16:44.581Z,10.70
2018-12-21T14:19:13.158Z,10.70
2018-12-21T14:21:41.738Z,10.70
2018-12-21T14:24:10.089Z,10.70
2018-12-21T14:26:38.277Z,10.80
2018-12-21T14:29:06.856Z,10.80
2018-12-21T14:31:35.369Z,10.70
2018-12-21T14:34:03.690Z,10.70
2018-12-21T14:36:32.186Z,10.70
2018-12-21T14:39:00.384Z,10.70
2018-12-21T14:41:28.556Z,10.70
2018-12-21T14:43:57.080Z,10.70
2018-12-21T14:46:25.430Z,10.70
2018-12-21T14:48:53.875Z,10.70
2018-12-21T14:51:22.169Z,10.70
2018-12-21T14:53:50.456Z,10.70
2018-12-21T14:56:19.362Z,10.70
2018-12-21T14:58:48.021Z,10.70
2018-12-21T15:01:16.496Z,10.80
2018-12-21T15:03:45.349Z,10.80
2018-12-21T15:06:13.636Z,10.80
2018-12-21T15:08:42.061Z,10.80
2018-12-21T15:11:11.274Z,10.80
2018-12-21T15:13:39.759Z,10.70
2018-12-21T15:16:08.283Z,10.70
2018-12-21T15:18:36.862Z,10.70
2018-12-21T15:21:05.454Z,10.70
2018-12-21T15:23:34.451Z,10.80
2018-12-21T15:26:02.928Z,10.80
2018-12-21T15:28:31.813Z,10.90
2018-12-21T15:31:00.107Z,10.90
2018-12-21T15:33:29.140Z,10.90
2018-12-21T15:35:57.446Z,10.90
2018-12-21T15:38:26.390Z,10.90
2018-12-21T15:40:54.812Z,10.80
2018-12-21T15:43:23.759Z,10.80
2018-12-21T15:45:51.992Z,10.80
2018-12-21T15:48:20.618Z,10.80
2018-12-21T15:50:49.372Z,10.80
2018-12-21T15:53:17.818Z,10.80
2018-12-21T15:55:54.553Z,11.70
2018-12-21T15:58:16.898Z,10.70
2018-12-21T16:00:45.328Z,10.80
2018-12-21T16:03:14.133Z,10.80
2018-12-21T16:05:42.325Z,10.80
2018-12-21T16:08:10.705Z,10.80
2018-12-21T16:10:39.511Z,10.80
2018-12-21T16:13:08.330Z,10.90
2018-12-21T16:15:36.746Z,11.00
2018-12-21T16:18:05.495Z,11.00
2018-12-21T16:20:34.245Z,11.10
2018-12-21T16:23:03.140Z,11.10
2018-12-21T16:25:31.591Z,11.10
2018-12-21T16:30:36.748Z,11.20
2018-12-21T16:33:05.083Z,11.10
2018-12-21T16:35:33.305Z,11.20
2018-12-21T16:38:01.476Z,11.20
2018-12-21T16:40:29.760Z,11.20
2018-12-21T16:42:58.482Z,11.20
2018-12-21T16:45:26.749Z,11.30
2018-12-21T16:47:57.472Z,11.30
2018-12-21T16:50:25.896Z,11.30
2018-12-21T16:52:54.356Z,11.30
2018-12-21T16:55:22.939Z,11.30
2018-12-21T16:57:51.981Z,11.40
2018-12-21T17:00:20.189Z,11.40
2018-12-21T17:02:48.687Z,11.40
2018-12-21T17:05:17.156Z,11.40
2018-12-21T17:07:45.356Z,11.50
2018-12-21T17:10:19.090Z,11.50
2018-12-21T17:12:47.416Z,11.50
2018-12-21T17:15:16.276Z,11.50
2018-12-21T17:17:44.930Z,11.50
2018-12-21T17:20:13.335Z,11.40
2018-12-21T17:22:42.046Z,11.40
2018-12-21T17:25:13.881Z,11.40
2018-12-21T17:27:42.497Z,11.50
2018-12-21T17:30:12.733Z,11.50
2018-12-21T17:32:40.972Z,11.50
2018-12-21T17:35:09.949Z,11.50
2018-12-21T17:37:39.581Z,11.50
2018-12-21T17:40:10.281Z,11.40
2018-12-21T17:42:38.703Z,11.40
2018-12-21T17:45:10.130Z,11.50
2018-12-21T17:47:38.253Z,11.50
2018-12-21T17:50:09.584Z,11.50
2018-12-21T17:52:38.091Z,11.50
2018-12-21T17:55:08.307Z,11.60
2018-12-21T17:57:36.656Z,11.60
2018-12-21T18:00:14.518Z,11.60
2018-12-21T18:02:44.710Z,11.60
2018-12-21T18:05:13.294Z,11.60
2018-12-21T18:07:41.585Z,11.60
2018-12-21T18:10:11.108Z,10.90
2018-12-21T18:12:39.204Z,11.70
2018-12-21T18:15:08.900Z,11.70
2018-12-21T18:17:37.622Z,11.70
2018-12-21T18:20:11.215Z,11.70
2018-12-21T18:22:40.337Z,11.80
2018-12-21T18:25:18.849Z,11.80
2018-12-21T18:27:51.286Z,11.80
2018-12-21T18:30:37.716Z,11.80
2018-12-21T18:33:10.853Z,11.70
2018-12-21T18:35:38.921Z,11.70
2018-12-21T18:38:16.061Z,11.70
2018-12-21T18:40:44.438Z,11.70
2018-12-21T18:43:12.924Z,11.70
2018-12-21T18:45:41.524Z,11.60
2018-12-21T18:48:10.549Z,11.60
2018-12-21T18:50:39.141Z,11.60
2018-12-21T18:53:07.599Z,11.60
2018-12-21T18:55:36.145Z,11.60
2018-12-21T18:58:05.262Z,11.50
2018-12-21T19:00:33.664Z,11.50
2018-12-21T19:03:02.219Z,11.40
2018-12-21T19:05:30.952Z,11.30
2018-12-21T19:07:59.419Z,11.20
2018-12-21T19:10:28.137Z,11.20
2018-12-21T19:12:56.280Z,11.20
2018-12-21T19:15:24.699Z,11.10
2018-12-21T19:17:53.067Z,11.00
2018-12-21T19:20:21.651Z,11.00
2018-12-21T19:22:49.948Z,11.10
2018-12-21T19:25:18.670Z,11.20
2018-12-21T19:27:47.823Z,11.00
2018-12-21T19:30:16.475Z,11.00
2018-12-21T19:32:45.570Z,11.00
2018-12-21T19:35:15.057Z,11.00
2018-12-21T19:37:43.549Z,11.00
2018-12-21T19:40:12.415Z,11.00
2018-12-21T19:42:41.263Z,11.00
2018-12-21T19:45:13.006Z,11.00
2018-12-21T19:47:41.474Z,11.00
2018-12-21T19:50:10.721Z,11.00
2018-12-21T19:52:39.243Z,11.00
2018-12-21T19:55:26.042Z,11.10
2018-12-21T19:57:55.335Z,11.10
2018-12-21T20:00:23.755Z,12.10
2018-12-21T20:02:52.042Z,11.10
2018-12-21T20:05:20.654Z,11.10
2018-12-21T20:07:48.874Z,11.10
2018-12-21T20:10:17.387Z,11.10
2018-12-21T20:12:46.131Z,11.10
2018-12-21T20:15:15.095Z,11.20
2018-12-21T20:17:43.472Z,11.20
2018-12-21T20:20:12.354Z,11.20
2018-12-21T20:22:40.756Z,11.20
2018-12-21T20:25:10.825Z,11.20
2018-12-21T20:27:40.433Z,11.30
2018-12-21T20:30:13.132Z,11.20
2018-12-21T20:32:41.503Z,11.20
2018-12-21T20:35:09.909Z,11.20
2018-12-21T20:37:38.876Z,11.20
2018-12-21T20:40:10.507Z,11.30
2018-12-21T20:42:39.065Z,11.30
2018-12-21T20:45:13.219Z,11.30
2018-12-21T20:47:43.530Z,11.30
2018-12-21T20:50:15.514Z,11.20
2018-12-21T20:52:44.171Z,11.30
2018-12-21T20:55:13.618Z,11.30
2018-12-21T20:57:46.007Z,11.30
2018-12-21T21:00:16.318Z,11.30
2018-12-21T21:02:45.415Z,11.10
2018-12-21T21:05:16.295Z,11.20
2018-12-21T21:07:45.505Z,11.20
2018-12-21T21:11:24.411Z,11.10
2018-12-21T21:13:49.424Z,11.10
2018-12-21T21:16:18.143Z,11.20
2018-12-21T21:18:46.683Z,11.20
2018-12-21T21:21:15.970Z,11.10
2018-12-21T21:24:39.863Z,11.00
2018-12-21T21:27:09.832Z,11.00
2018-12-21T21:29:38.287Z,11.10
2018-12-21T21:32:06.670Z,11.10
2018-12-21T21:34:35.114Z,11.10
2018-12-21T21:37:03.454Z,11.00
2018-12-21T21:39:31.607Z,11.00
2018-12-21T21:41:59.828Z,11.00
2018-12-21T21:44:27.947Z,11.10
2018-12-21T21:46:56.134Z,11.10
2018-12-21T21:49:24.729Z,11.00
2018-12-21T21:51:53.212Z,11.10
2018-12-21T21:54:21.774Z,11.00
2018-12-21T21:56:50.460Z,11.00
2018-12-21T21:59:18.932Z,11.00
2018-12-21T22:01:47.292Z,11.00
2018-12-21T22:04:16.093Z,10.90
2018-12-21T22:06:44.779Z,10.90
2018-12-21T22:09:13.601Z,10.80
2018-12-21T22:11:42.209Z,10.70
2018-12-21T22:14:10.934Z,10.70
2018-12-21T22:16:40.110Z,10.80
2018-12-21T22:19:09.944Z,10.70
2018-12-21T22:21:39.309Z,10.70
2018-12-21T22:24:08.217Z,10.70
2018-12-21T22:26:36.909Z,10.80
2018-12-21T22:29:05.990Z,10.80
2018-12-21T22:31:35.108Z,10.80
2018-12-21T22:34:20.073Z,10.70
2018-12-21T22:37:04.545Z,10.70
2018-12-21T22:39:32.711Z,10.70
2018-12-21T22:42:02.634Z,10.60
2018-12-21T22:44:30.865Z,10.70
2018-12-21T22:46:59.269Z,10.70
2018-12-21T22:49:27.482Z,10.70
2018-12-21T22:51:56.175Z,10.70
2018-12-21T22:54:24.618Z,10.70
2018-12-21T22:56:53.035Z,10.60
2018-12-21T22:59:21.573Z,10.60
2018-12-21T23:01:49.676Z,10.70
2018-12-21T23:04:18.469Z,10.70
2018-12-21T23:06:47.431Z,10.70
2018-12-21T23:09:16.647Z,10.70
2018-12-21T23:11:45.355Z,10.70
2018-12-21T23:14:15.522Z,10.60
2018-12-21T23:16:46.048Z,10.60
2018-12-21T23:19:16.532Z,10.70
2018-12-21T23:21:47.906Z,10.70
2018-12-21T23:24:19.143Z,10.70
2018-12-21T23:26:50.218Z,10.10
2018-12-21T23:29:20.200Z,10.60
2018-12-21T23:31:52.105Z,10.70
2018-12-21T23:34:21.658Z,10.80
2018-12-21T23:36:52.458Z,10.70
2018-12-21T23:39:22.612Z,10.70
2018-12-21T23:41:52.221Z,10.70
2018-12-21T23:44:21.628Z,10.80
2018-12-21T23:46:51.169Z,9.40
2018-12-21T23:49:22.089Z,10.80
2018-12-21T23:51:52.219Z,10.70
2018-12-21T23:54:22.464Z,10.90
2018-12-21T23:56:52.607Z,10.90
2018-12-21T23:59:22.660Z,10.10
